sensor_id;sensor_type;location;lat;lon;timestamp;temperature;humidity
9311;DHT22;4694;52.464;13.480;2022-09-20T00:01:03;9.50;99.90
9311;DHT22;4694;52.464;13.480;2022-09-20T00:03:30;9.40;99.90
9311;DHT22;4694;52.464;13.480;2022-09-20T00:05:59;9.40;99.90
9311;DHT22;4694;52.464;13.480;2022-09-20T00:08:26;9.40;99.90
9311;DHT22;4694;52.464;13.480;2022-09-20T00:10:57;9.40;99.90
9311;DHT22;4694;52.464;13.480;2022-09-20T00:13:26;9.40;99.90
9311;DHT22;4694;52.464;13.480;2022-09-20T00:15:53;9.30;99.90
9311;DHT22;4694;52.464;13.480;2022-09-20T00:18:20;9.40;99.90
9311;DHT22;4694;52.464;13.480;2022-09-20T00:20:48;9.40;99.90
9311;DHT22;4694;52.464;13.480;2022-09-20T00:23:15;9.30;99.90
9311;DHT22;4694;52.464;13.480;2022-09-20T00:25:42;9.40;99.90
9311;DHT22;4694;52.464;13.480;2022-09-20T00:28:09;9.30;99.90
9311;DHT22;4694;52.464;13.480;2022-09-20T00:30:37;9.40;99.90
9311;DHT22;4694;52.464;13.480;2022-09-20T00:33:05;9.30;99.90
9311;DHT22;4694;52.464;13.480;2022-09-20T00:35:32;9.20;99.90
9311;DHT22;4694;52.464;13.480;2022-09-20T02:12:36;8.90;99.90
9311;DHT22;4694;52.464;13.480;2022-09-20T02:25:34;9.00;99.90
9311;DHT22;4694;52.464;13.480;2022-09-20T02:28:16;8.90;99.90
9311;DHT22;4694;52.464;13.480;2022-09-20T02:30:53;8.70;99.90
9311;DHT22;4694;52.464;13.480;2022-09-20T02:33:51;8.70;99.90
9311;DHT22;4694;52.464;13.480;2022-09-20T02:39:02;8.80;99.90
9311;DHT22;4694;52.464;13.480;2022-09-20T02:41:48;8.80;99.90
9311;DHT22;4694;52.464;13.480;2022-09-20T02:44:24;9.00;99.90
9311;DHT22;4694;52.464;13.480;2022-09-20T02:46:58;9.10;99.90
9311;DHT22;4694;52.464;13.480;2022-09-20T02:49:33;9.10;99.90
9311;DHT22;4694;52.464;13.480;2022-09-20T02:52:07;9.20;99.90
9311;DHT22;4694;52.464;13.480;2022-09-20T02:54:44;9.00;99.90
9311;DHT22;4694;52.464;13.480;2022-09-20T02:57:15;9.00;99.90
9311;DHT22;4694;52.464;13.480;2022-09-20T02:59:52;9.00;99.90
9311;DHT22;4694;52.464;13.480;2022-09-20T03:02:25;9.00;99.90
9311;DHT22;4694;52.464;13.480;2022-09-20T03:05:08;9.10;99.90
9311;DHT22;4694;52.464;13.480;2022-09-20T03:07:45;8.90;99.90
9311;DHT22;4694;52.464;13.480;2022-09-20T03:10:21;9.10;99.90
9311;DHT22;4694;52.464;13.480;2022-09-20T03:13:17;9.00;99.90
9311;DHT22;4694;52.464;13.480;2022-09-20T03:15:56;9.10;99.90
9311;DHT22;4694;52.464;13.480;2022-09-20T03:18:33;9.10;99.90
9311;DHT22;4694;52.464;13.480;2022-09-20T03:21:08;9.10;99.90
9311;DHT22;4694;52.464;13.480;2022-09-20T03:23:46;9.10;99.90
9311;DHT22;4694;52.464;13.480;2022-09-20T03:26:22;8.90;99.90
9311;DHT22;4694;52.464;13.480;2022-09-20T03:29:03;9.10;99.90
9311;DHT22;4694;52.464;13.480;2022-09-20T03:31:45;8.90;99.90
9311;DHT22;4694;52.464;13.480;2022-09-20T03:34:28;9.10;99.90
9311;DHT22;4694;52.464;13.480;2022-09-20T03:37:14;9.00;99.90
9311;DHT22;4694;52.464;13.480;2022-09-20T03:40:14;9.00;99.90
9311;DHT22;4694;52.464;13.480;2022-09-20T03:42:46;9.00;99.90
9311;DHT22;4694;52.464;13.480;2022-09-20T03:45:34;9.00;99.90
9311;DHT22;4694;52.464;13.480;2022-09-20T03:48:20;9.00;99.90
9311;DHT22;4694;52.464;13.480;2022-09-20T03:51:03;8.90;99.90
9311;DHT22;4694;52.464;13.480;2022-09-20T03:54:04;9.00;99.90
9311;DHT22;4694;52.464;13.480;2022-09-20T04:00:03;9.10;99.90
9311;DHT22;4694;52.464;13.480;2022-09-20T04:02:43;9.10;99.90
9311;DHT22;4694;52.464;13.480;2022-09-20T04:05:16;9.10;99.90
9311;DHT22;4694;52.464;13.480;2022-09-20T04:07:55;9.00;99.90
9311;DHT22;4694;52.464;13.480;2022-09-20T04:10:32;9.30;99.90
9311;DHT22;4694;52.464;13.480;2022-09-20T04:13:14;9.40;99.90
9311;DHT22;4694;52.464;13.480;2022-09-20T04:15:52;9.30;99.90
9311;DHT22;4694;52.464;13.480;2022-09-20T04:18:27;9.30;99.90
9311;DHT22;4694;52.464;13.480;2022-09-20T04:21:02;9.30;99.90
9311;DHT22;4694;52.464;13.480;2022-09-20T04:23:46;9.40;99.90
9311;DHT22;4694;52.464;13.480;2022-09-20T04:26:19;9.40;99.90
9311;DHT22;4694;52.464;13.480;2022-09-20T04:28:51;9.50;99.90
9311;DHT22;4694;52.464;13.480;2022-09-20T04:31:28;9.50;99.90
9311;DHT22;4694;52.464;13.480;2022-09-20T04:33:58;9.50;99.90
9311;DHT22;4694;52.464;13.480;2022-09-20T04:36:36;9.50;99.90
9311;DHT22;4694;52.464;13.480;2022-09-20T04:39:19;9.50;99.90
9311;DHT22;4694;52.464;13.480;2022-09-20T04:42:29;9.60;99.90
9311;DHT22;4694;52.464;13.480;2022-09-20T04:45:24;9.50;99.90
9311;DHT22;4694;52.464;13.480;2022-09-20T04:51:30;9.50;99.90
9311;DHT22;4694;52.464;13.480;2022-09-20T04:54:36;9.50;99.90
9311;DHT22;4694;52.464;13.480;2022-09-20T04:57:43;9.40;99.90
9311;DHT22;4694;52.464;13.480;2022-09-20T05:00:19;9.50;99.90
9311;DHT22;4694;52.464;13.480;2022-09-20T05:03:13;9.50;99.90
9311;DHT22;4694;52.464;13.480;2022-09-20T05:06:16;9.50;99.90
9311;DHT22;4694;52.464;13.480;2022-09-20T05:09:17;9.50;99.90
9311;DHT22;4694;52.464;13.480;2022-09-20T05:11:53;9.50;99.90
9311;DHT22;4694;52.464;13.480;2022-09-20T05:14:32;9.50;99.90
9311;DHT22;4694;52.464;13.480;2022-09-20T05:17:26;9.50;99.90
9311;DHT22;4694;52.464;13.480;2022-09-20T05:20:18;9.40;99.90
9311;DHT22;4694;52.464;13.480;2022-09-20T05:23:19;9.50;99.90
9311;DHT22;4694;52.464;13.480;2022-09-20T05:26:07;9.50;99.90
9311;DHT22;4694;52.464;13.480;2022-09-20T05:28:43;9.60;99.90
9311;DHT22;4694;52.464;13.480;2022-09-20T05:31:14;9.70;99.90
9311;DHT22;4694;52.464;13.480;2022-09-20T05:33:54;10.00;99.90
9311;DHT22;4694;52.464;13.480;2022-09-20T05:36:29;10.00;99.90
9311;DHT22;4694;52.464;13.480;2022-09-20T05:39:01;9.90;99.90
9311;DHT22;4694;52.464;13.480;2022-09-20T05:41:39;9.90;99.90
9311;DHT22;4694;52.464;13.480;2022-09-20T05:44:13;10.00;99.90
9311;DHT22;4694;52.464;13.480;2022-09-20T05:46:49;10.20;99.90
9311;DHT22;4694;52.464;13.480;2022-09-20T05:49:25;10.30;99.90
9311;DHT22;4694;52.464;13.480;2022-09-20T05:52:19;10.40;99.90
9311;DHT22;4694;52.464;13.480;2022-09-20T05:54:56;10.40;99.90
9311;DHT22;4694;52.464;13.480;2022-09-20T05:57:43;10.40;99.90
9311;DHT22;4694;52.464;13.480;2022-09-20T06:00:15;10.40;99.90
9311;DHT22;4694;52.464;13.480;2022-09-20T06:02:50;10.50;99.90
9311;DHT22;4694;52.464;13.480;2022-09-20T06:05:28;10.60;99.90
9311;DHT22;4694;52.464;13.480;2022-09-20T06:08:31;10.80;99.90
9311;DHT22;4694;52.464;13.480;2022-09-20T06:11:25;11.00;99.90
9311;DHT22;4694;52.464;13.480;2022-09-20T06:14:08;11.10;99.90
9311;DHT22;4694;52.464;13.480;2022-09-20T06:16:45;11.40;99.90
9311;DHT22;4694;52.464;13.480;2022-09-20T06:19:19;11.50;99.90
9311;DHT22;4694;52.464;13.480;2022-09-20T06:21:51;11.60;99.90
9311;DHT22;4694;52.464;13.480;2022-09-20T06:24:28;11.80;99.90
9311;DHT22;4694;52.464;13.480;2022-09-20T06:26:58;11.60;99.90
9311;DHT22;4694;52.464;13.480;2022-09-20T06:29:31;11.60;99.90
9311;DHT22;4694;52.464;13.480;2022-09-20T06:32:00;11.70;99.90
9311;DHT22;4694;52.464;13.480;2022-09-20T06:34:27;11.50;99.90
9311;DHT22;4694;52.464;13.480;2022-09-20T06:37:05;11.60;99.90
9311;DHT22;4694;52.464;13.480;2022-09-20T06:39:57;11.60;99.90
9311;DHT22;4694;52.464;13.480;2022-09-20T06:42:39;11.60;99.90
9311;DHT22;4694;52.464;13.480;2022-09-20T06:45:11;11.60;99.90
9311;DHT22;4694;52.464;13.480;2022-09-20T06:47:37;11.80;99.90
9311;DHT22;4694;52.464;13.480;2022-09-20T06:50:05;12.10;99.90
9311;DHT22;4694;52.464;13.480;2022-09-20T06:52:33;12.30;99.90
9311;DHT22;4694;52.464;13.480;2022-09-20T06:55:00;12.60;99.90
9311;DHT22;4694;52.464;13.480;2022-09-20T06:57:34;12.80;99.90
9311;DHT22;4694;52.464;13.480;2022-09-20T07:00:03;13.10;99.90
9311;DHT22;4694;52.464;13.480;2022-09-20T07:09:53;13.60;99.90
9311;DHT22;4694;52.464;13.480;2022-09-20T07:12:19;13.60;99.90
9311;DHT22;4694;52.464;13.480;2022-09-20T07:14:46;13.80;99.90
9311;DHT22;4694;52.464;13.480;2022-09-20T07:19:43;13.50;99.90
9311;DHT22;4694;52.464;13.480;2022-09-20T07:22:09;13.30;99.90
9311;DHT22;4694;52.464;13.480;2022-09-20T07:24:36;13.40;99.90
9311;DHT22;4694;52.464;13.480;2022-09-20T07:27:03;12.90;99.90
9311;DHT22;4694;52.464;13.480;2022-09-20T07:29:31;13.10;99.90
9311;DHT22;4694;52.464;13.480;2022-09-20T07:31:59;13.50;99.90
9311;DHT22;4694;52.464;13.480;2022-09-20T07:34:26;14.00;99.90
9311;DHT22;4694;52.464;13.480;2022-09-20T07:36:56;13.90;99.90
9311;DHT22;4694;52.464;13.480;2022-09-20T07:39:24;14.00;99.90
9311;DHT22;4694;52.464;13.480;2022-09-20T07:41:51;14.20;99.90
9311;DHT22;4694;52.464;13.480;2022-09-20T08:23:48;14.20;99.90
9311;DHT22;4694;52.464;13.480;2022-09-20T08:26:17;13.60;99.90
9311;DHT22;4694;52.464;13.480;2022-09-20T08:28:47;13.30;99.90
9311;DHT22;4694;52.464;13.480;2022-09-20T08:31:18;13.50;99.90
9311;DHT22;4694;52.464;13.480;2022-09-20T08:33:46;13.30;99.90
9311;DHT22;4694;52.464;13.480;2022-09-20T08:36:14;13.30;99.90
9311;DHT22;4694;52.464;13.480;2022-09-20T08:38:42;13.40;99.90
9311;DHT22;4694;52.464;13.480;2022-09-20T08:41:10;13.60;99.90
9311;DHT22;4694;52.464;13.480;2022-09-20T08:43:43;13.60;99.90
9311;DHT22;4694;52.464;13.480;2022-09-20T08:46:14;13.60;99.90
9311;DHT22;4694;52.464;13.480;2022-09-20T08:48:41;13.60;99.90
9311;DHT22;4694;52.464;13.480;2022-09-20T08:51:10;13.60;99.90
9311;DHT22;4694;52.464;13.480;2022-09-20T08:53:43;13.80;99.90
9311;DHT22;4694;52.464;13.480;2022-09-20T08:56:12;13.60;99.90
9311;DHT22;4694;52.464;13.480;2022-09-20T08:58:39;13.70;99.90
9311;DHT22;4694;52.464;13.480;2022-09-20T09:01:06;13.80;99.90
9311;DHT22;4694;52.464;13.480;2022-09-20T09:03:34;13.80;99.90
9311;DHT22;4694;52.464;13.480;2022-09-20T09:06:01;13.90;99.90
9311;DHT22;4694;52.464;13.480;2022-09-20T09:08:32;14.00;99.90
9311;DHT22;4694;52.464;13.480;2022-09-20T09:11:03;14.20;99.90
9311;DHT22;4694;52.464;13.480;2022-09-20T09:13:38;14.40;99.90
9311;DHT22;4694;52.464;13.480;2022-09-20T09:16:10;14.40;99.90
9311;DHT22;4694;52.464;13.480;2022-09-20T09:46:25;16.80;99.90
9311;DHT22;4694;52.464;13.480;2022-09-20T09:49:12;18.10;99.90
9311;DHT22;4694;52.464;13.480;2022-09-20T09:51:40;18.00;99.90
9311;DHT22;4694;52.464;13.480;2022-09-20T09:54:15;17.50;99.90
9311;DHT22;4694;52.464;13.480;2022-09-20T09:56:53;17.10;99.90
9311;DHT22;4694;52.464;13.480;2022-09-20T09:59:30;17.20;99.90
9311;DHT22;4694;52.464;13.480;2022-09-20T10:02:02;17.50;99.90
9311;DHT22;4694;52.464;13.480;2022-09-20T10:04:44;18.50;99.90
9311;DHT22;4694;52.464;13.480;2022-09-20T10:07:16;18.90;99.90
9311;DHT22;4694;52.464;13.480;2022-09-20T10:09:57;18.50;99.90
9311;DHT22;4694;52.464;13.480;2022-09-20T10:12:46;18.00;99.90
9311;DHT22;4694;52.464;13.480;2022-09-20T10:15:27;18.10;99.90
9311;DHT22;4694;52.464;13.480;2022-09-20T10:18:26;18.50;99.90
9311;DHT22;4694;52.464;13.480;2022-09-20T10:21:10;18.80;99.90
9311;DHT22;4694;52.464;13.480;2022-09-20T10:23:58;20.10;99.90
9311;DHT22;4694;52.464;13.480;2022-09-20T10:26:43;19.10;99.90
9311;DHT22;4694;52.464;13.480;2022-09-20T10:29:18;18.90;99.90
9311;DHT22;4694;52.464;13.480;2022-09-20T10:31:57;18.60;99.90
9311;DHT22;4694;52.464;13.480;2022-09-20T10:34:41;18.70;99.90
9311;DHT22;4694;52.464;13.480;2022-09-20T10:37:20;18.00;99.90
9311;DHT22;4694;52.464;13.480;2022-09-20T10:39:58;18.90;99.90
9311;DHT22;4694;52.464;13.480;2022-09-20T10:42:36;19.50;99.90
9311;DHT22;4694;52.464;13.480;2022-09-20T10:45:28;19.90;99.90
9311;DHT22;4694;52.464;13.480;2022-09-20T10:48:03;21.00;99.90
9311;DHT22;4694;52.464;13.480;2022-09-20T10:50:35;19.50;99.90
9311;DHT22;4694;52.464;13.480;2022-09-20T10:53:16;20.80;99.00
9311;DHT22;4694;52.464;13.480;2022-09-20T10:55:51;19.40;99.90
9311;DHT22;4694;52.464;13.480;2022-09-20T10:58:45;17.80;99.90
9311;DHT22;4694;52.464;13.480;2022-09-20T11:01:22;16.90;99.90
9311;DHT22;4694;52.464;13.480;2022-09-20T11:04:31;16.70;99.90
9311;DHT22;4694;52.464;13.480;2022-09-20T11:07:10;15.90;99.90
9311;DHT22;4694;52.464;13.480;2022-09-20T11:09:46;15.10;99.90
9311;DHT22;4694;52.464;13.480;2022-09-20T11:12:22;15.00;99.90
9311;DHT22;4694;52.464;13.480;2022-09-20T11:14:54;14.80;99.90
9311;DHT22;4694;52.464;13.480;2022-09-20T11:17:25;14.70;99.90
9311;DHT22;4694;52.464;13.480;2022-09-20T11:19:57;14.60;99.90
9311;DHT22;4694;52.464;13.480;2022-09-20T11:22:31;14.60;99.90
9311;DHT22;4694;52.464;13.480;2022-09-20T11:25:12;14.50;99.90
9311;DHT22;4694;52.464;13.480;2022-09-20T11:27:42;14.30;99.90
9311;DHT22;4694;52.464;13.480;2022-09-20T11:30:15;14.60;99.90
9311;DHT22;4694;52.464;13.480;2022-09-20T11:32:48;13.20;99.90
9311;DHT22;4694;52.464;13.480;2022-09-20T11:35:25;12.60;99.90
9311;DHT22;4694;52.464;13.480;2022-09-20T11:38:00;12.10;99.90
9311;DHT22;4694;52.464;13.480;2022-09-20T11:40:33;11.80;99.90
9311;DHT22;4694;52.464;13.480;2022-09-20T11:43:02;11.80;99.90
9311;DHT22;4694;52.464;13.480;2022-09-20T11:45:30;11.70;99.90
9311;DHT22;4694;52.464;13.480;2022-09-20T11:48:02;11.70;99.90
9311;DHT22;4694;52.464;13.480;2022-09-20T11:50:44;11.80;99.90
9311;DHT22;4694;52.464;13.480;2022-09-20T11:53:26;11.60;99.90
9311;DHT22;4694;52.464;13.480;2022-09-20T11:56:02;11.70;99.90
9311;DHT22;4694;52.464;13.480;2022-09-20T11:58:33;11.80;99.90
9311;DHT22;4694;52.464;13.480;2022-09-20T12:01:11;11.80;99.90
9311;DHT22;4694;52.464;13.480;2022-09-20T12:03:40;11.80;99.90
9311;DHT22;4694;52.464;13.480;2022-09-20T12:06:25;11.80;99.90
9311;DHT22;4694;52.464;13.480;2022-09-20T12:08:52;11.90;99.90
9311;DHT22;4694;52.464;13.480;2022-09-20T12:11:28;12.10;99.90
9311;DHT22;4694;52.464;13.480;2022-09-20T12:14:00;12.10;99.90
9311;DHT22;4694;52.464;13.480;2022-09-20T12:16:38;12.20;99.90
9311;DHT22;4694;52.464;13.480;2022-09-20T12:19:09;12.20;99.90
9311;DHT22;4694;52.464;13.480;2022-09-20T12:24:41;12.50;99.90
9311;DHT22;4694;52.464;13.480;2022-09-20T12:27:53;12.90;99.90
9311;DHT22;4694;52.464;13.480;2022-09-20T12:30:16;14.50;99.90
9311;DHT22;4694;52.464;13.480;2022-09-20T12:32:48;16.10;99.90
9311;DHT22;4694;52.464;13.480;2022-09-20T12:38:30;19.40;99.90
9311;DHT22;4694;52.464;13.480;2022-09-20T12:41:00;18.90;99.90
9311;DHT22;4694;52.464;13.480;2022-09-20T12:43:31;19.30;99.90
9311;DHT22;4694;52.464;13.480;2022-09-20T12:45:59;20.80;99.90
9311;DHT22;4694;52.464;13.480;2022-09-20T12:48:27;21.50;99.90
9311;DHT22;4694;52.464;13.480;2022-09-20T12:51:05;22.50;99.90
9311;DHT22;4694;52.464;13.480;2022-09-20T12:54:02;22.40;99.90
9311;DHT22;4694;52.464;13.480;2022-09-20T12:56:34;21.90;99.90
9311;DHT22;4694;52.464;13.480;2022-09-20T12:59:04;21.50;99.90
9311;DHT22;4694;52.464;13.480;2022-09-20T13:01:35;21.30;99.90
9311;DHT22;4694;52.464;13.480;2022-09-20T13:04:48;20.60;99.90
9311;DHT22;4694;52.464;13.480;2022-09-20T13:07:31;20.40;99.90
9311;DHT22;4694;52.464;13.480;2022-09-20T13:10:02;19.70;99.90
9311;DHT22;4694;52.464;13.480;2022-09-20T13:12:31;18.90;99.90
9311;DHT22;4694;52.464;13.480;2022-09-20T13:15:05;17.60;99.90
9311;DHT22;4694;52.464;13.480;2022-09-20T13:17:35;16.80;99.90
9311;DHT22;4694;52.464;13.480;2022-09-20T13:20:01;16.40;99.90
9311;DHT22;4694;52.464;13.480;2022-09-20T13:22:33;17.40;99.90
9311;DHT22;4694;52.464;13.480;2022-09-20T13:25:05;18.60;99.90
9311;DHT22;4694;52.464;13.480;2022-09-20T13:27:34;19.00;99.90
9311;DHT22;4694;52.464;13.480;2022-09-20T13:30:16;17.30;99.90
9311;DHT22;4694;52.464;13.480;2022-09-20T13:32:43;17.20;99.90
9311;DHT22;4694;52.464;13.480;2022-09-20T13:35:13;17.50;99.90
9311;DHT22;4694;52.464;13.480;2022-09-20T13:37:50;17.20;99.90
9311;DHT22;4694;52.464;13.480;2022-09-20T13:40:19;17.40;99.90
9311;DHT22;4694;52.464;13.480;2022-09-20T13:42:47;18.30;99.90
9311;DHT22;4694;52.464;13.480;2022-09-20T13:45:18;18.40;99.90
9311;DHT22;4694;52.464;13.480;2022-09-20T13:47:49;18.80;99.90
9311;DHT22;4694;52.464;13.480;2022-09-20T13:50:21;19.20;99.90
9311;DHT22;4694;52.464;13.480;2022-09-20T13:52:50;18.70;99.90
9311;DHT22;4694;52.464;13.480;2022-09-20T13:55:26;19.60;99.90
9311;DHT22;4694;52.464;13.480;2022-09-20T13:57:55;18.20;99.90
9311;DHT22;4694;52.464;13.480;2022-09-20T14:00:23;17.80;99.90
9311;DHT22;4694;52.464;13.480;2022-09-20T14:02:52;17.70;99.90
9311;DHT22;4694;52.464;13.480;2022-09-20T14:05:25;17.50;99.90
9311;DHT22;4694;52.464;13.480;2022-09-20T14:07:53;18.50;99.90
9311;DHT22;4694;52.464;13.480;2022-09-20T14:10:32;19.70;99.90
9311;DHT22;4694;52.464;13.480;2022-09-20T14:13:02;18.40;99.90
9311;DHT22;4694;52.464;13.480;2022-09-20T14:15:36;18.50;99.90
9311;DHT22;4694;52.464;13.480;2022-09-20T14:18:05;18.90;99.90
9311;DHT22;4694;52.464;13.480;2022-09-20T14:20:32;18.40;99.90
9311;DHT22;4694;52.464;13.480;2022-09-20T14:22:59;18.40;99.90
9311;DHT22;4694;52.464;13.480;2022-09-20T14:25:26;18.40;99.90
9311;DHT22;4694;52.464;13.480;2022-09-20T14:28:15;19.60;99.90
9311;DHT22;4694;52.464;13.480;2022-09-20T14:30:45;20.20;99.90
9311;DHT22;4694;52.464;13.480;2022-09-20T14:33:15;20.50;99.90
9311;DHT22;4694;52.464;13.480;2022-09-20T14:35:46;19.60;99.90
9311;DHT22;4694;52.464;13.480;2022-09-20T14:38:14;20.10;99.90
9311;DHT22;4694;52.464;13.480;2022-09-20T14:40:42;20.60;99.00
9311;DHT22;4694;52.464;13.480;2022-09-20T14:43:20;20.20;99.20
9311;DHT22;4694;52.464;13.480;2022-09-20T14:45:53;19.10;99.90
9311;DHT22;4694;52.464;13.480;2022-09-20T14:48:33;19.30;99.90
9311;DHT22;4694;52.464;13.480;2022-09-20T14:51:24;19.70;99.90
9311;DHT22;4694;52.464;13.480;2022-09-20T14:53:52;20.90;99.80
9311;DHT22;4694;52.464;13.480;2022-09-20T14:56:40;20.60;98.80
9311;DHT22;4694;52.464;13.480;2022-09-20T14:59:20;20.90;97.80
9311;DHT22;4694;52.464;13.480;2022-09-20T15:02:00;19.90;98.80
9311;DHT22;4694;52.464;13.480;2022-09-20T15:04:28;18.70;99.90
9311;DHT22;4694;52.464;13.480;2022-09-20T15:06:59;17.70;99.90
9311;DHT22;4694;52.464;13.480;2022-09-20T15:09:27;17.20;99.90
9311;DHT22;4694;52.464;13.480;2022-09-20T15:12:02;16.40;99.90
9311;DHT22;4694;52.464;13.480;2022-09-20T15:14:30;15.80;99.90
9311;DHT22;4694;52.464;13.480;2022-09-20T15:16:58;15.70;99.90
9311;DHT22;4694;52.464;13.480;2022-09-20T15:19:26;15.80;99.90
9311;DHT22;4694;52.464;13.480;2022-09-20T15:21:55;15.90;99.90
9311;DHT22;4694;52.464;13.480;2022-09-20T15:24:23;15.90;99.90
9311;DHT22;4694;52.464;13.480;2022-09-20T15:26:50;15.40;99.90
9311;DHT22;4694;52.464;13.480;2022-09-20T15:29:18;15.50;99.90
9311;DHT22;4694;52.464;13.480;2022-09-20T15:31:46;15.60;99.90
9311;DHT22;4694;52.464;13.480;2022-09-20T15:34:14;15.70;99.90
9311;DHT22;4694;52.464;13.480;2022-09-20T15:36:41;16.00;99.90
9311;DHT22;4694;52.464;13.480;2022-09-20T15:39:10;15.80;99.90
9311;DHT22;4694;52.464;13.480;2022-09-20T15:41:38;15.60;99.90
9311;DHT22;4694;52.464;13.480;2022-09-20T15:44:06;15.50;99.90
9311;DHT22;4694;52.464;13.480;2022-09-20T15:46:33;15.20;99.90
9311;DHT22;4694;52.464;13.480;2022-09-20T15:49:01;15.20;99.90
9311;DHT22;4694;52.464;13.480;2022-09-20T15:51:29;15.00;99.90
9311;DHT22;4694;52.464;13.480;2022-09-20T15:53:57;14.80;99.90
9311;DHT22;4694;52.464;13.480;2022-09-20T15:56:26;14.70;99.90
9311;DHT22;4694;52.464;13.480;2022-09-20T15:58:54;14.20;99.90
9311;DHT22;4694;52.464;13.480;2022-09-20T16:01:24;14.00;99.90
9311;DHT22;4694;52.464;13.480;2022-09-20T16:03:51;13.60;99.90
9311;DHT22;4694;52.464;13.480;2022-09-20T16:06:18;13.20;99.90
9311;DHT22;4694;52.464;13.480;2022-09-20T16:08:46;13.10;99.90
9311;DHT22;4694;52.464;13.480;2022-09-20T16:11:15;12.90;99.90
9311;DHT22;4694;52.464;13.480;2022-09-20T16:13:42;12.70;99.90
9311;DHT22;4694;52.464;13.480;2022-09-20T16:16:09;12.70;99.90
9311;DHT22;4694;52.464;13.480;2022-09-20T16:18:38;12.70;99.90
9311;DHT22;4694;52.464;13.480;2022-09-20T16:21:23;12.60;99.90
9311;DHT22;4694;52.464;13.480;2022-09-20T16:23:52;12.70;99.90
9311;DHT22;4694;52.464;13.480;2022-09-20T16:26:20;12.80;99.90
9311;DHT22;4694;52.464;13.480;2022-09-20T16:28:47;12.80;99.90
9311;DHT22;4694;52.464;13.480;2022-09-20T16:31:28;12.70;99.90
9311;DHT22;4694;52.464;13.480;2022-09-20T16:33:55;12.70;99.90
9311;DHT22;4694;52.464;13.480;2022-09-20T16:36:22;12.60;99.90
9311;DHT22;4694;52.464;13.480;2022-09-20T16:38:50;12.60;99.90
9311;DHT22;4694;52.464;13.480;2022-09-20T16:41:20;12.40;99.90
9311;DHT22;4694;52.464;13.480;2022-09-20T16:43:47;12.30;99.90
9311;DHT22;4694;52.464;13.480;2022-09-20T16:46:15;12.20;99.90
9311;DHT22;4694;52.464;13.480;2022-09-20T16:48:44;12.10;99.90
9311;DHT22;4694;52.464;13.480;2022-09-20T16:51:11;12.10;99.90
9311;DHT22;4694;52.464;13.480;2022-09-20T16:53:40;11.90;99.90
9311;DHT22;4694;52.464;13.480;2022-09-20T16:56:16;11.90;99.90
9311;DHT22;4694;52.464;13.480;2022-09-20T16:58:43;11.80;99.90
9311;DHT22;4694;52.464;13.480;2022-09-20T17:01:10;11.80;99.90
9311;DHT22;4694;52.464;13.480;2022-09-20T17:03:37;11.80;99.90
9311;DHT22;4694;52.464;13.480;2022-09-20T17:06:06;11.60;99.90
9311;DHT22;4694;52.464;13.480;2022-09-20T17:08:33;11.60;99.90
9311;DHT22;4694;52.464;13.480;2022-09-20T17:11:04;11.60;99.90
9311;DHT22;4694;52.464;13.480;2022-09-20T17:13:34;11.50;99.90
9311;DHT22;4694;52.464;13.480;2022-09-20T17:16:05;11.50;99.90
9311;DHT22;4694;52.464;13.480;2022-09-20T17:18:32;11.60;99.90
9311;DHT22;4694;52.464;13.480;2022-09-20T17:21:02;11.60;99.90
9311;DHT22;4694;52.464;13.480;2022-09-20T17:23:29;11.50;99.90
9311;DHT22;4694;52.464;13.480;2022-09-20T17:26:04;11.40;99.90
9311;DHT22;4694;52.464;13.480;2022-09-20T17:28:36;11.40;99.90
9311;DHT22;4694;52.464;13.480;2022-09-20T17:31:03;11.30;99.90
9311;DHT22;4694;52.464;13.480;2022-09-20T17:33:31;11.20;99.90
9311;DHT22;4694;52.464;13.480;2022-09-20T17:35:58;11.10;99.90
9311;DHT22;4694;52.464;13.480;2022-09-20T17:38:26;11.10;99.90
9311;DHT22;4694;52.464;13.480;2022-09-20T17:41:04;11.10;99.90
9311;DHT22;4694;52.464;13.480;2022-09-20T17:43:33;11.00;99.90
9311;DHT22;4694;52.464;13.480;2022-09-20T17:46:09;10.90;99.90
9311;DHT22;4694;52.464;13.480;2022-09-20T17:48:36;10.80;99.90
9311;DHT22;4694;52.464;13.480;2022-09-20T17:51:03;10.70;99.90
9311;DHT22;4694;52.464;13.480;2022-09-20T17:53:31;10.80;99.90
9311;DHT22;4694;52.464;13.480;2022-09-20T17:55:59;10.70;99.90
9311;DHT22;4694;52.464;13.480;2022-09-20T17:58:26;10.80;99.90
9311;DHT22;4694;52.464;13.480;2022-09-20T18:00:53;10.90;99.90
9311;DHT22;4694;52.464;13.480;2022-09-20T18:03:24;10.80;99.90
9311;DHT22;4694;52.464;13.480;2022-09-20T18:05:50;10.90;99.90
9311;DHT22;4694;52.464;13.480;2022-09-20T18:08:18;10.80;99.90
9311;DHT22;4694;52.464;13.480;2022-09-20T18:10:54;10.90;99.90
9311;DHT22;4694;52.464;13.480;2022-09-20T18:13:21;10.80;99.90
9311;DHT22;4694;52.464;13.480;2022-09-20T18:15:48;10.80;99.90
9311;DHT22;4694;52.464;13.480;2022-09-20T18:18:14;10.70;99.90
9311;DHT22;4694;52.464;13.480;2022-09-20T18:20:43;10.60;99.90
9311;DHT22;4694;52.464;13.480;2022-09-20T18:23:10;10.60;99.90
9311;DHT22;4694;52.464;13.480;2022-09-20T18:25:36;10.50;99.90
9311;DHT22;4694;52.464;13.480;2022-09-20T18:28:17;10.50;99.90
9311;DHT22;4694;52.464;13.480;2022-09-20T18:30:44;10.40;99.90
9311;DHT22;4694;52.464;13.480;2022-09-20T18:33:11;10.40;99.90
9311;DHT22;4694;52.464;13.480;2022-09-20T18:35:38;10.30;99.90
9311;DHT22;4694;52.464;13.480;2022-09-20T18:38:08;10.30;99.90
9311;DHT22;4694;52.464;13.480;2022-09-20T18:40:36;10.30;99.90
9311;DHT22;4694;52.464;13.480;2022-09-20T18:43:03;10.30;99.90
9311;DHT22;4694;52.464;13.480;2022-09-20T18:45:30;10.30;99.90
9311;DHT22;4694;52.464;13.480;2022-09-20T18:47:56;10.20;99.90
9311;DHT22;4694;52.464;13.480;2022-09-20T18:50:24;10.20;99.90
9311;DHT22;4694;52.464;13.480;2022-09-20T18:52:51;10.20;99.90
9311;DHT22;4694;52.464;13.480;2022-09-20T18:55:19;10.10;99.90
9311;DHT22;4694;52.464;13.480;2022-09-20T18:57:47;10.10;99.90
9311;DHT22;4694;52.464;13.480;2022-09-20T19:00:14;10.00;99.90
9311;DHT22;4694;52.464;13.480;2022-09-20T19:02:52;10.00;99.90
9311;DHT22;4694;52.464;13.480;2022-09-20T19:05:26;10.00;99.90
9311;DHT22;4694;52.464;13.480;2022-09-20T19:08:06;9.90;99.90
9311;DHT22;4694;52.464;13.480;2022-09-20T19:10:42;9.90;99.90
9311;DHT22;4694;52.464;13.480;2022-09-20T19:13:25;9.90;99.90
9311;DHT22;4694;52.464;13.480;2022-09-20T19:16:04;9.80;99.90
9311;DHT22;4694;52.464;13.480;2022-09-20T19:18:51;9.80;99.90
9311;DHT22;4694;52.464;13.480;2022-09-20T19:21:24;9.70;99.90
9311;DHT22;4694;52.464;13.480;2022-09-20T19:24:01;9.60;99.90
9311;DHT22;4694;52.464;13.480;2022-09-20T19:26:35;9.60;99.90
9311;DHT22;4694;52.464;13.480;2022-09-20T19:29:08;9.60;99.90
9311;DHT22;4694;52.464;13.480;2022-09-20T19:31:39;9.50;99.90
9311;DHT22;4694;52.464;13.480;2022-09-20T19:34:14;9.50;99.90
9311;DHT22;4694;52.464;13.480;2022-09-20T19:36:49;9.40;99.90
9311;DHT22;4694;52.464;13.480;2022-09-20T19:39:25;9.40;99.90
9311;DHT22;4694;52.464;13.480;2022-09-20T19:42:02;9.40;99.90
9311;DHT22;4694;52.464;13.480;2022-09-20T19:44:36;9.30;99.90
9311;DHT22;4694;52.464;13.480;2022-09-20T19:47:19;9.40;99.90
9311;DHT22;4694;52.464;13.480;2022-09-20T19:49:52;9.30;99.90
9311;DHT22;4694;52.464;13.480;2022-09-20T19:52:19;9.30;99.90